Time;durP1;ratioP1;P1;durP2;ratioP2;P2;SDS_P1;SDS_P2;PMS_P1;PMS_P2;Temp;Humidity;BMP_temperature;BMP_pressure;BME280_temperature;BME280_humidity;BME280_pressure;Samples;Min_cycle;Max_cycle;Signal;HPM_P1;HPM_P2
2023/06/15 00:02:03;;;;;;;7.00;4.60;;;;;;;17.36;55.70;101757.31;5088614;28;20036;-68
2023/06/15 00:04:29;;;;;;;4.97;4.40;;;;;;;17.29;55.64;101748.78;5068038;28;20435;-68
2023/06/15 00:06:54;;;;;;;5.20;4.40;;;;;;;17.31;56.02;101749.59;5077155;28;20029;-68
2023/06/15 00:09:19;;;;;;;6.22;4.30;;;;;;;17.27;55.84;101757.69;5085692;28;20027;-68
2023/06/15 00:11:45;;;;;;;4.85;4.18;;;;;;;17.28;56.13;101754.13;5084321;28;20376;-68
2023/06/15 00:14:10;;;;;;;5.72;4.20;;;;;;;17.25;56.59;101752.44;5082741;28;20081;-68
2023/06/15 00:16:41;;;;;;;7.20;4.43;;;;;;;17.21;57.07;101758.75;5085443;28;20395;-68
2023/06/15 00:19:10;;;;;;;5.72;4.38;;;;;;;17.19;57.52;101749.19;5084122;28;20028;-68
2023/06/15 00:21:40;;;;;;;4.95;4.13;;;;;;;17.15;56.98;101747.56;5080228;28;20024;-68
2023/06/15 00:24:09;;;;;;;5.38;4.88;;;;;;;17.02;57.25;101747.16;5082100;28;20064;-68
2023/06/15 00:26:35;;;;;;;7.45;4.82;;;;;;;17.09;57.78;101762.69;5075575;28;20021;-68
2023/06/15 00:29:00;;;;;;;5.07;4.55;;;;;;;17.02;57.35;101753.28;5081586;28;20040;-68
2023/06/15 00:31:25;;;;;;;5.57;4.80;;;;;;;17.00;58.38;101757.75;5086111;28;20482;-68
2023/06/15 00:33:52;;;;;;;7.95;5.28;;;;;;;16.87;58.92;101758.22;5075688;28;20070;-68
2023/06/15 00:36:17;;;;;;;5.70;4.55;;;;;;;16.87;58.65;101769.63;5082424;28;20028;-68
2023/06/15 00:38:43;;;;;;;6.32;4.70;;;;;;;16.76;59.69;101750.72;5080557;28;20031;-68
2023/06/15 00:41:08;;;;;;;6.68;5.18;;;;;;;16.74;59.41;101752.50;5085129;28;20024;-68
2023/06/15 00:43:35;;;;;;;6.60;5.20;;;;;;;16.76;59.71;101774.41;5078145;28;20025;-68
2023/06/15 00:46:01;;;;;;;5.55;4.82;;;;;;;16.78;59.62;101772.59;5083662;28;20501;-68
2023/06/15 00:48:28;;;;;;;5.30;4.80;;;;;;;16.73;60.39;101774.47;5077986;28;20028;-67
2023/06/15 00:50:53;;;;;;;5.28;4.70;;;;;;;16.71;60.12;101777.19;5079882;28;20272;-68
2023/06/15 00:53:19;;;;;;;8.85;5.45;;;;;;;16.69;59.88;101775.50;5084470;28;20071;-68
2023/06/15 00:55:47;;;;;;;7.32;5.22;;;;;;;16.68;59.86;101772.03;5081284;28;20489;-68
2023/06/15 00:58:13;;;;;;;8.52;5.18;;;;;;;16.65;60.47;101774.75;5086698;28;20027;-68
2023/06/15 01:00:38;;;;;;;5.30;4.80;;;;;;;16.59;60.23;101774.97;5075614;28;20016;-68
2023/06/15 01:03:04;;;;;;;6.50;5.00;;;;;;;16.52;60.23;101770.81;5083101;28;20020;-68
2023/06/15 01:05:34;;;;;;;7.05;4.82;;;;;;;16.49;60.38;101765.66;5078970;28;20024;-68
2023/06/15 01:08:09;;;;;;;6.45;4.85;;;;;;;16.40;61.12;101779.97;5081821;28;20468;-68
2023/06/15 01:10:35;;;;;;;5.90;5.30;;;;;;;16.36;61.53;101768.69;5081793;28;20040;-68
2023/06/15 01:13:03;;;;;;;7.50;5.50;;;;;;;16.32;61.51;101768.84;5080799;28;20070;-68
2023/06/15 01:15:28;;;;;;;6.15;5.55;;;;;;;16.28;62.67;101770.69;5084187;28;20498;-68
2023/06/15 01:17:59;;;;;;;7.80;5.70;;;;;;;16.22;62.20;101770.03;5087399;28;20025;-68
2023/06/15 01:20:30;;;;;;;7.53;5.95;;;;;;;16.21;62.82;101768.31;5081351;28;20028;-68
2023/06/15 01:23:40;;;;;;;6.45;5.63;;;;;;;16.23;61.01;101766.50;5083290;28;20020;-68
2023/06/15 01:26:07;;;;;;;6.32;5.72;;;;;;;16.15;62.55;101778.16;5077203;28;20032;-68
2023/06/15 01:28:40;;;;;;;11.63;6.00;;;;;;;16.06;63.18;101777.56;5083638;28;20048;-68
2023/06/15 01:31:07;;;;;;;8.57;5.85;;;;;;;16.03;63.98;101773.25;5085390;28;20074;-68
2023/06/15 01:33:32;;;;;;;10.23;6.15;;;;;;;16.04;63.59;101777.59;5081582;28;20480;-68
2023/06/15 01:35:58;;;;;;;8.05;6.60;;;;;;;16.05;63.56;101774.06;5084042;28;20063;-68
2023/06/15 01:38:26;;;;;;;8.60;6.20;;;;;;;16.00;63.65;101778.63;5082905;28;20024;-68
2023/06/15 01:40:53;;;;;;;7.03;6.15;;;;;;;16.00;64.21;101780.38;5074822;28;20020;-68
2023/06/15 01:43:25;;;;;;;7.35;6.60;;;;;;;15.91;64.39;101777.13;5077354;28;20029;-68
2023/06/15 01:45:52;;;;;;;6.82;6.07;;;;;;;15.84;64.30;101783.47;5081594;28;20038;-68
2023/06/15 01:48:18;;;;;;;7.95;6.63;;;;;;;15.79;65.32;101782.75;5080938;28;20405;-68
2023/06/15 01:50:44;;;;;;;6.72;6.07;;;;;;;15.78;64.78;101785.44;5081692;28;20078;-68
2023/06/15 01:53:10;;;;;;;9.13;6.32;;;;;;;15.71;65.34;101778.66;5083353;28;20081;-68
2023/06/15 01:55:35;;;;;;;9.73;6.25;;;;;;;15.71;65.62;101783.91;5082502;28;20032;-68
2023/06/15 01:58:01;;;;;;;8.48;5.82;;;;;;;15.71;66.02;101781.28;5082742;28;20028;-68
2023/06/15 02:00:28;;;;;;;7.63;6.53;;;;;;;15.70;66.18;101775.16;5080038;28;20052;-68
2023/06/15 02:02:53;;;;;;;8.57;6.38;;;;;;;15.60;66.96;101781.56;5081056;28;20540;-68
2023/06/15 02:05:18;;;;;;;7.85;7.05;;;;;;;15.63;67.35;101776.19;5083091;28;20051;-68
2023/06/15 02:07:44;;;;;;;8.60;7.10;;;;;;;15.59;67.77;101778.06;5082718;28;20078;-68
2023/06/15 02:10:10;;;;;;;7.15;6.40;;;;;;;15.63;68.67;101786.72;5083686;28;20028;-68
2023/06/15 02:12:35;;;;;;;9.38;7.25;;;;;;;15.52;67.92;101775.66;5065196;28;20032;-68
2023/06/15 02:15:02;;;;;;;7.07;6.07;;;;;;;15.51;68.91;101777.44;5072941;28;20052;-68
2023/06/15 02:17:38;;;;;;;6.95;6.10;;;;;;;15.41;68.54;101770.72;5075505;28;20048;-68
2023/06/15 02:20:05;;;;;;;9.25;7.82;;;;;;;15.44;68.85;101779.38;5072400;28;20519;-68
2023/06/15 02:22:30;;;;;;;8.18;7.30;;;;;;;15.49;68.66;101779.22;5075515;28;20063;-68
2023/06/15 02:24:56;;;;;;;8.10;7.35;;;;;;;15.46;68.70;101787.19;5079930;28;20503;-67
2023/06/15 02:27:21;;;;;;;8.88;7.55;;;;;;;15.39;69.27;101783.88;5081348;28;20024;-68
2023/06/15 02:29:46;;;;;;;10.25;7.45;;;;;;;15.36;68.59;101793.63;5084164;28;20404;-68
2023/06/15 02:32:29;;;;;;;9.70;7.22;;;;;;;15.37;68.47;101798.00;5082409;28;20024;-68
2023/06/15 02:34:56;;;;;;;9.95;7.65;;;;;;;15.34;68.91;101798.94;5076710;28;20039;-68
2023/06/15 02:37:21;;;;;;;8.32;7.38;;;;;;;15.34;69.24;101801.56;5077332;28;20035;-68
2023/06/15 02:39:46;;;;;;;8.32;7.53;;;;;;;15.34;69.39;101793.69;5091044;28;20033;-68
2023/06/15 02:42:11;;;;;;;9.15;7.55;;;;;;;15.30;70.48;101796.44;5083650;28;20021;-68
2023/06/15 02:44:37;;;;;;;9.82;7.70;;;;;;;15.25;70.18;101804.44;5091719;28;20028;-68
2023/06/15 02:47:02;;;;;;;9.02;8.13;;;;;;;15.26;69.78;101807.94;5079874;28;20017;-68
2023/06/15 02:49:27;;;;;;;9.60;7.50;;;;;;;15.20;71.30;101804.59;5079602;28;20084;-68
2023/06/15 02:51:53;;;;;;;8.30;7.38;;;;;;;15.23;70.79;101803.63;5083475;28;20395;-68
2023/06/15 02:54:18;;;;;;;8.77;7.88;;;;;;;15.19;71.06;101801.97;5088864;28;20105;-68
2023/06/15 02:56:43;;;;;;;9.55;8.07;;;;;;;15.02;71.45;101796.34;5083083;28;20495;-68
2023/06/15 02:59:09;;;;;;;9.55;7.78;;;;;;;15.02;71.41;101788.47;5083878;28;20107;-68
2023/06/15 03:01:38;;;;;;;8.80;7.68;;;;;;;15.08;71.46;101804.06;5085989;28;20475;-68
2023/06/15 03:04:09;;;;;;;9.05;7.88;;;;;;;15.09;72.09;101811.88;5081147;28;20034;-68
2023/06/15 03:06:35;;;;;;;12.65;8.48;;;;;;;15.11;71.60;101803.97;5084045;28;20032;-68
2023/06/15 03:09:00;;;;;;;8.52;7.63;;;;;;;15.07;72.29;101813.66;5079427;28;20541;-68
2023/06/15 03:11:26;;;;;;;10.73;8.23;;;;;;;15.06;72.57;101803.22;5085561;28;20433;-68
2023/06/15 03:13:53;;;;;;;9.93;8.02;;;;;;;15.03;73.02;101805.94;5086182;28;20081;-68
2023/06/15 03:16:19;;;;;;;9.38;8.10;;;;;;;15.05;73.54;101814.63;5082962;28;20028;-68
2023/06/15 03:18:44;;;;;;;9.20;8.00;;;;;;;15.05;73.03;101810.25;5083422;28;20031;-68
2023/06/15 03:21:09;;;;;;;10.38;7.95;;;;;;;15.06;73.14;101811.97;5072634;28;20442;-68
2023/06/15 03:23:34;;;;;;;9.82;8.10;;;;;;;15.05;72.99;101815.50;5083739;28;20089;-68
2023/06/15 03:26:00;;;;;;;11.38;7.22;;;;;;;14.98;73.58;101806.06;5087464;28;20488;-68
2023/06/15 03:28:27;;;;;;;9.27;7.63;;;;;;;14.97;74.64;101807.81;5084046;28;20082;-68
2023/06/15 03:30:56;;;;;;;9.05;8.13;;;;;;;14.98;73.55;101808.69;5078829;28;20413;-68
2023/06/15 03:33:22;;;;;;;10.07;7.82;;;;;;;14.95;73.78;101814.03;5082904;28;20121;-68
2023/06/15 03:35:48;;;;;;;9.45;7.45;;;;;;;14.91;74.72;101813.25;5085978;28;20548;-68
2023/06/15 03:38:15;;;;;;;9.23;7.93;;;;;;;14.92;74.54;101809.69;5082913;28;20415;-68
2023/06/15 03:40:42;;;;;;;8.40;7.60;;;;;;;14.92;74.78;101806.22;5084888;28;20099;-68
2023/06/15 03:43:08;;;;;;;9.88;8.30;;;;;;;14.87;75.50;101805.47;5084374;28;20435;-68
2023/06/15 03:45:33;;;;;;;9.15;8.25;;;;;;;14.88;75.02;101804.59;5082095;28;20052;-68
2023/06/15 03:47:58;;;;;;;11.45;8.15;;;;;;;14.72;75.05;101802.34;5078028;28;20027;-68
2023/06/15 03:50:23;;;;;;;9.75;7.88;;;;;;;14.81;75.23;101803.00;5082255;28;20464;-68
2023/06/15 03:52:49;;;;;;;8.73;7.80;;;;;;;14.89;75.07;101815.03;5087567;28;20114;-68
2023/06/15 03:55:14;;;;;;;14.25;7.90;;;;;;;14.91;75.59;101813.25;5082589;28;20035;-68
2023/06/15 03:57:40;;;;;;;8.73;7.82;;;;;;;14.88;75.30;101815.09;5089324;28;20023;-68
2023/06/15 04:00:09;;;;;;;9.25;8.32;;;;;;;14.91;75.28;101817.59;5078348;28;20021;-68
2023/06/15 04:02:34;;;;;;;10.05;8.35;;;;;;;14.90;74.88;101815.88;5089117;28;20093;-68
2023/06/15 04:05:02;;;;;;;9.88;8.40;;;;;;;14.98;76.09;101824.44;5083352;28;20464;-68
2023/06/15 04:07:29;;;;;;;10.38;8.82;;;;;;;15.00;76.56;101822.63;5087245;28;20031;-68
2023/06/15 04:09:54;;;;;;;9.70;7.90;;;;;;;15.05;75.58;101827.78;5085032;28;20032;-68
2023/06/15 04:12:21;;;;;;;11.63;8.95;;;;;;;15.03;74.89;101821.69;5084863;28;20031;-68
2023/06/15 04:14:46;;;;;;;12.43;8.85;;;;;;;15.07;74.93;101826.81;5085134;28;20371;-68
2023/06/15 04:17:12;;;;;;;14.20;8.82;;;;;;;15.13;74.91;101829.25;5085583;28;20039;-68
2023/06/15 04:19:37;;;;;;;11.98;8.48;;;;;;;15.19;74.99;101834.34;5077558;28;20031;-68
2023/06/15 04:22:03;;;;;;;11.15;8.85;;;;;;;15.27;75.12;101828.91;5085842;28;20134;-68
2023/06/15 04:24:28;;;;;;;13.82;9.90;;;;;;;15.29;74.86;101831.50;5081903;28;20024;-68
2023/06/15 04:26:53;;;;;;;9.23;8.27;;;;;;;15.37;74.91;101840.03;5086464;28;20412;-68
2023/06/15 04:29:18;;;;;;;10.50;9.43;;;;;;;15.38;74.74;101833.88;5083870;28;20040;-68
2023/06/15 04:31:46;;;;;;;13.63;9.40;;;;;;;15.40;74.22;101837.28;5084779;28;20047;-68
2023/06/15 04:34:12;;;;;;;13.10;9.63;;;;;;;15.46;74.86;101839.75;5085119;28;20032;-68
2023/06/15 04:36:40;;;;;;;11.18;9.25;;;;;;;15.50;74.66;101838.78;5083631;28;20177;-68
2023/06/15 04:39:05;;;;;;;14.40;8.27;;;;;;;15.61;74.54;101841.09;5085201;28;20043;-68
2023/06/15 04:41:31;;;;;;;19.67;10.75;;;;;;;15.64;74.27;101849.75;5083034;28;20476;-68
2023/06/15 04:43:56;;;;;;;15.80;9.10;;;;;;;15.71;75.07;101849.63;5085055;28;20024;-68
2023/06/15 04:46:22;;;;;;;16.58;9.45;;;;;;;15.77;74.56;101845.06;5083237;28;20016;-68
2023/06/15 04:48:48;;;;;;;12.27;9.30;;;;;;;15.82;75.14;101847.53;5075978;28;20029;-68
2023/06/15 04:51:15;;;;;;;13.32;10.00;;;;;;;15.83;74.18;101842.25;5082754;28;20035;-68
2023/06/15 04:53:43;;;;;;;14.13;10.07;;;;;;;15.90;75.06;101848.19;5077961;28;20036;-68
2023/06/15 04:56:09;;;;;;;12.35;10.55;;;;;;;15.94;73.99;101841.91;5084204;28;20151;-68
2023/06/15 04:58:34;;;;;;;13.00;10.75;;;;;;;16.06;75.28;101853.84;5088472;28;20103;-68
2023/06/15 05:01:00;;;;;;;19.13;11.85;;;;;;;16.10;73.84;101858.97;5079791;28;20136;-68
2023/06/15 05:03:25;;;;;;;21.00;11.50;;;;;;;16.15;73.73;101845.66;5073269;28;20025;-68
2023/06/15 05:05:50;;;;;;;20.13;11.77;;;;;;;16.28;73.59;101852.25;5077611;28;20025;-68
2023/06/15 05:08:16;;;;;;;15.32;11.32;;;;;;;16.38;72.31;101850.19;5082750;28;20020;-68
2023/06/15 05:10:41;;;;;;;16.73;11.52;;;;;;;16.46;73.11;101853.47;5078772;28;20377;-68
2023/06/15 05:13:07;;;;;;;16.67;11.95;;;;;;;16.46;70.91;101845.56;5081913;28;20035;-68
2023/06/15 05:15:32;;;;;;;19.17;11.77;;;;;;;16.57;70.83;101855.75;5080060;28;20071;-68
2023/06/15 05:17:57;;;;;;;17.45;12.05;;;;;;;16.63;71.84;101859.03;5072874;28;20028;-68
2023/06/15 05:20:23;;;;;;;22.35;11.85;;;;;;;16.67;70.46;101857.16;5069556;28;20047;-68
2023/06/15 05:22:48;;;;;;;15.95;11.30;;;;;;;16.79;70.51;101861.22;5080361;28;20028;-68
2023/06/15 05:25:13;;;;;;;19.85;10.90;;;;;;;16.88;69.69;101858.28;5077588;28;20047;-68
2023/06/15 05:27:38;;;;;;;16.30;12.00;;;;;;;16.94;70.00;101855.44;5086955;28;20036;-68
2023/06/15 05:30:07;;;;;;;17.92;11.00;;;;;;;16.99;70.28;101863.16;5078301;28;20423;-68
2023/06/15 05:32:37;;;;;;;13.93;10.98;;;;;;;17.11;70.17;101859.25;5086571;28;20472;-68
2023/06/15 05:35:06;;;;;;;23.08;11.50;;;;;;;17.10;68.25;101853.09;5079487;28;20029;-68
2023/06/15 05:37:33;;;;;;;14.10;12.10;;;;;;;17.22;67.63;101865.00;5085655;28;20066;-68
2023/06/15 05:39:58;;;;;;;14.60;11.57;;;;;;;17.30;67.30;101869.09;5081900;28;20052;-68
2023/06/15 05:42:26;;;;;;;17.80;11.75;;;;;;;17.32;68.62;101861.13;5087629;28;20484;-68
2023/06/15 05:44:51;;;;;;;15.45;10.95;;;;;;;17.47;67.37;101862.38;5074882;28;20115;-68
2023/06/15 05:47:17;;;;;;;17.95;11.27;;;;;;;17.47;68.24;101852.69;5064429;28;20060;-68
2023/06/15 05:49:43;;;;;;;17.58;10.73;;;;;;;17.63;67.65;101870.59;5081947;28;20048;-68
2023/06/15 05:52:08;;;;;;;18.95;11.35;;;;;;;17.69;66.49;101868.59;5080189;28;20052;-68
2023/06/15 05:54:34;;;;;;;15.88;10.10;;;;;;;17.74;66.20;101865.78;5083389;28;20390;-68
2023/06/15 05:57:00;;;;;;;14.88;11.07;;;;;;;17.80;67.18;101870.00;5083074;28;20043;-68
2023/06/15 05:59:25;;;;;;;17.50;10.60;;;;;;;17.92;64.81;101866.88;5086594;28;20020;-68
2023/06/15 06:01:50;;;;;;;13.45;9.68;;;;;;;17.99;65.15;101869.25;5083669;28;20031;-68
2023/06/15 06:04:16;;;;;;;18.58;10.82;;;;;;;18.07;63.99;101863.66;5083339;28;20028;-68
2023/06/15 06:06:41;;;;;;;14.60;10.80;;;;;;;18.14;63.67;101859.84;5087646;28;20488;-68
2023/06/15 06:09:06;;;;;;;15.30;10.40;;;;;;;18.24;63.15;101861.22;5088705;28;20036;-68
2023/06/15 06:11:32;;;;;;;15.68;9.88;;;;;;;18.34;63.76;101864.34;5086837;28;20089;-68
2023/06/15 06:13:57;;;;;;;13.00;11.30;;;;;;;18.43;63.53;101861.34;5084807;28;20028;-68
2023/06/15 06:16:22;;;;;;;15.35;10.85;;;;;;;18.47;63.83;101865.59;5086727;28;20078;-68
2023/06/15 06:18:48;;;;;;;13.73;11.10;;;;;;;18.56;62.26;101866.16;5086390;28;20099;-68
2023/06/15 06:21:13;;;;;;;16.42;10.73;;;;;;;18.64;62.89;101872.00;5084468;28;20028;-68
2023/06/15 06:23:39;;;;;;;15.68;10.05;;;;;;;18.72;61.32;101859.34;5087546;28;20032;-68
2023/06/15 06:26:04;;;;;;;19.83;9.98;;;;;;;18.82;62.39;101865.97;5086070;28;20043;-68
2023/06/15 06:28:29;;;;;;;18.58;10.43;;;;;;;18.88;60.61;101863.06;5086391;28;20129;-68
2023/06/15 06:30:58;;;;;;;16.15;9.75;;;;;;;18.92;59.59;101861.16;5087692;28;20027;-68
2023/06/15 06:33:23;;;;;;;16.67;10.05;;;;;;;19.01;60.66;101859.91;5082224;28;20020;-68
2023/06/15 06:35:48;;;;;;;14.30;10.40;;;;;;;19.04;59.40;101860.63;5084698;28;20036;-68
2023/06/15 06:38:13;;;;;;;12.85;9.27;;;;;;;19.10;60.95;101864.81;5086509;28;20106;-68
2023/06/15 06:40:39;;;;;;;10.73;9.18;;;;;;;19.18;60.71;101866.19;5085391;28;20020;-68
2023/06/15 06:43:04;;;;;;;16.33;9.73;;;;;;;19.25;58.81;101858.84;5087589;28;20464;-68
2023/06/15 06:45:29;;;;;;;12.85;9.20;;;;;;;19.33;58.86;101862.03;5074526;28;20177;-68
2023/06/15 06:47:55;;;;;;;12.30;8.40;;;;;;;19.31;58.32;101845.34;5083048;28;20027;-68
2023/06/15 06:50:20;;;;;;;11.13;8.15;;;;;;;19.49;58.41;101859.56;5080834;28;20476;-68
2023/06/15 06:52:45;;;;;;;14.90;8.90;;;;;;;19.54;57.93;101859.34;5084804;28;20082;-68
2023/06/15 06:55:10;;;;;;;14.43;8.32;;;;;;;19.64;57.41;101865.97;5086363;28;20024;-68
2023/06/15 06:57:36;;;;;;;13.43;8.15;;;;;;;19.71;57.10;101872.69;5085030;28;20024;-68
2023/06/15 07:00:03;;;;;;;13.30;8.10;;;;;;;19.76;57.87;101870.69;5083321;28;20375;-70
2023/06/15 07:02:28;;;;;;;12.35;8.20;;;;;;;19.86;56.70;101874.63;5085267;28;20095;-71
2023/06/15 07:04:53;;;;;;;12.93;8.15;;;;;;;19.93;56.56;101867.28;5073284;28;20500;-72
2023/06/15 07:07:19;;;;;;;13.05;8.75;;;;;;;19.98;55.74;101860.00;5084700;28;20028;-72
2023/06/15 07:09:44;;;;;;;11.73;8.07;;;;;;;20.10;55.26;101859.41;5081512;28;20473;-71
2023/06/15 07:12:10;;;;;;;13.93;8.90;;;;;;;20.23;54.91;101859.66;5084455;28;20039;-72
2023/06/15 07:14:35;;;;;;;20.30;9.07;;;;;;;20.35;54.81;101867.03;5077283;28;20025;-71
2023/06/15 07:17:00;;;;;;;15.70;8.48;;;;;;;20.36;54.79;101862.59;5079913;28;20432;-71
2023/06/15 07:19:25;;;;;;;12.82;7.95;;;;;;;20.49;55.48;101865.50;5084665;28;20045;-71
2023/06/15 07:21:51;;;;;;;12.85;8.20;;;;;;;20.55;53.64;101859.94;5076953;28;20021;-71
2023/06/15 07:24:17;;;;;;;18.55;7.60;;;;;;;20.61;52.02;101859.66;5086273;28;20035;-72
2023/06/15 07:26:42;;;;;;;10.40;6.57;;;;;;;20.68;51.76;101861.06;5081485;28;20051;-71
2023/06/15 07:29:07;;;;;;;14.30;6.78;;;;;;;20.76;52.19;101864.19;5086310;28;20443;-71
2023/06/15 07:31:33;;;;;;;12.02;7.78;;;;;;;20.80;52.18;101864.91;5084117;28;20039;-72
2023/06/15 07:33:58;;;;;;;14.30;6.65;;;;;;;20.85;52.19;101865.50;5080696;28;20493;-72
2023/06/15 07:36:23;;;;;;;11.38;7.03;;;;;;;21.01;50.61;101873.53;5073469;28;20040;-71
2023/06/15 07:38:48;;;;;;;11.32;6.20;;;;;;;21.09;49.85;101876.66;5082642;28;20175;-71
2023/06/15 07:41:14;;;;;;;12.07;6.47;;;;;;;21.13;50.62;101877.38;5074732;28;20033;-71
2023/06/15 07:43:39;;;;;;;11.88;6.22;;;;;;;21.17;50.05;101877.13;5079964;28;20429;-71
2023/06/15 07:46:04;;;;;;;14.70;6.45;;;;;;;21.25;49.74;101872.28;5077210;28;20043;-71
2023/06/15 07:48:30;;;;;;;6.63;6.00;;;;;;;21.29;48.45;101873.00;5077218;28;20101;-71
2023/06/15 07:50:56;;;;;;;12.27;6.15;;;;;;;21.44;48.88;101876.66;5072045;28;20028;-71
2023/06/15 07:53:21;;;;;;;9.05;6.43;;;;;;;21.51;48.37;101878.03;5080655;28;20142;-70
2023/06/15 07:55:46;;;;;;;19.00;5.57;;;;;;;21.60;46.55;101877.53;5076225;28;20068;-71
2023/06/15 07:58:12;;;;;;;11.25;4.90;;;;;;;21.67;48.97;101873.63;5082875;28;20020;-71
2023/06/15 08:00:37;;;;;;;9.07;5.40;;;;;;;21.74;47.55;101864.41;5081299;28;20097;-71
2023/06/15 08:03:02;;;;;;;7.53;5.18;;;;;;;21.84;46.78;101880.66;5083274;28;20027;-71
2023/06/15 08:05:27;;;;;;;9.02;4.95;;;;;;;21.91;46.73;101881.22;5069182;28;20499;-70
2023/06/15 08:07:53;;;;;;;8.13;4.95;;;;;;;22.01;45.94;101879.78;5082655;28;20039;-71
2023/06/15 08:10:18;;;;;;;6.22;4.78;;;;;;;22.10;46.71;101876.56;5075877;28;20357;-70
2023/06/15 08:12:44;;;;;;;7.38;4.50;;;;;;;22.17;44.57;101878.00;5077407;28;20059;-71
2023/06/15 08:15:09;;;;;;;6.90;4.50;;;;;;;22.25;43.37;101871.41;5084484;28;20424;-71
2023/06/15 08:17:35;;;;;;;6.47;4.00;;;;;;;22.33;43.98;101871.81;5085304;28;20024;-70
2023/06/15 08:20:01;;;;;;;10.73;4.47;;;;;;;22.41;41.46;101870.44;5070282;28;20515;-70
2023/06/15 08:22:27;;;;;;;7.82;4.40;;;;;;;22.50;44.02;101861.09;5085399;28;20046;-70
2023/06/15 08:24:53;;;;;;;12.00;5.03;;;;;;;22.75;42.90;101873.81;5080235;28;20033;-70
2023/06/15 08:27:18;;;;;;;10.77;4.57;;;;;;;22.81;42.02;101868.13;5077033;28;20372;-71
2023/06/15 08:29:44;;;;;;;8.98;4.03;;;;;;;22.98;43.15;101876.94;5079035;28;20131;-71
2023/06/15 08:32:13;;;;;;;7.43;4.57;;;;;;;23.02;40.96;101882.00;5087418;28;20113;-71
2023/06/15 08:34:40;;;;;;;12.98;4.80;;;;;;;23.04;40.75;101884.56;5073187;28;20031;-71
2023/06/15 08:37:05;;;;;;;7.60;4.20;;;;;;;23.14;42.58;101877.75;5079152;28;20434;-71
2023/06/15 08:39:30;;;;;;;4.95;4.13;;;;;;;23.24;40.85;101864.75;5080628;28;20032;-70
2023/06/15 08:41:56;;;;;;;10.98;4.60;;;;;;;23.26;41.23;101873.50;5080325;28;20529;-70
2023/06/15 08:44:22;;;;;;;8.30;4.65;;;;;;;23.36;41.18;101866.66;5080964;28;20506;-71
2023/06/15 08:46:48;;;;;;;10.65;4.53;;;;;;;23.47;39.99;101864.19;5080409;28;20051;-70
2023/06/15 08:49:13;;;;;;;12.23;4.57;;;;;;;23.57;40.25;101861.81;5082304;28;20110;-70
2023/06/15 08:51:38;;;;;;;12.55;4.30;;;;;;;23.64;40.68;101867.59;5084225;28;20035;-70
2023/06/15 08:54:08;;;;;;;8.00;4.38;;;;;;;23.74;39.39;101868.78;5086287;28;20028;-70
2023/06/15 08:56:37;;;;;;;10.88;4.38;;;;;;;23.84;38.90;101869.94;5084011;28;20118;-70
2023/06/15 08:59:03;;;;;;;7.32;4.03;;;;;;;23.92;38.72;101862.31;5083199;28;20458;-71
2023/06/15 09:01:30;;;;;;;8.38;4.60;;;;;;;23.94;39.61;101860.41;5080922;28;20031;-70
2023/06/15 09:03:56;;;;;;;6.32;4.38;;;;;;;24.04;39.21;101872.19;5082978;28;20499;-70
2023/06/15 09:06:22;;;;;;;7.28;4.20;;;;;;;24.13;38.55;101852.06;5084311;28;20060;-70
2023/06/15 09:08:48;;;;;;;9.68;4.15;;;;;;;24.25;39.10;101858.41;5073216;28;20033;-71
2023/06/15 09:11:14;;;;;;;8.02;4.25;;;;;;;24.35;37.46;101861.34;5087679;28;20020;-70
2023/06/15 09:13:41;;;;;;;9.35;4.68;;;;;;;24.41;36.47;101859.16;5079272;28;20036;-71
2023/06/15 09:16:08;;;;;;;7.93;4.18;;;;;;;24.32;37.49;101850.88;5079399;28;20028;-71
2023/06/15 09:18:52;;;;;;;5.90;4.18;;;;;;;24.52;37.12;101859.31;5074209;28;20032;-72
2023/06/15 09:21:23;;;;;;;6.15;4.20;;;;;;;24.24;36.12;101857.56;5074126;28;20515;-71
2023/06/15 09:23:48;;;;;;;9.35;4.70;;;;;;;24.41;36.80;101863.63;5081210;28;20030;-71
2023/06/15 09:26:25;;;;;;;9.38;4.35;;;;;;;24.70;35.72;101856.38;5079145;28;20115;-72
2023/06/15 09:28:54;;;;;;;8.38;4.32;;;;;;;25.01;34.83;101865.81;5083072;28;20086;-71
2023/06/15 09:31:36;;;;;;;11.93;4.82;;;;;;;25.38;36.05;101866.84;5083226;28;20016;-76
2023/06/15 09:34:06;;;;;;;7.72;4.57;;;;;;;25.67;36.25;101866.59;5084060;28;20080;-70
2023/06/15 09:36:38;;;;;;;4.97;4.30;;;;;;;25.94;35.39;101854.94;5068350;28;20123;-70
2023/06/15 09:39:04;;;;;;;5.90;4.40;;;;;;;25.89;34.05;101860.59;5083841;28;20119;-70
2023/06/15 09:41:30;;;;;;;6.85;4.53;;;;;;;25.85;34.06;101859.13;5083367;28;20707;-70
2023/06/15 09:43:56;;;;;;;12.65;4.55;;;;;;;26.22;34.03;101856.44;5083404;28;20039;-70
2023/06/15 09:46:27;;;;;;;7.63;4.07;;;;;;;26.46;35.14;101848.44;5083956;28;20464;-70
2023/06/15 09:48:53;;;;;;;5.53;4.32;;;;;;;26.40;33.44;101839.03;5072808;28;20543;-70
2023/06/15 09:51:20;;;;;;;10.63;4.50;;;;;;;26.39;34.83;101842.69;5083535;28;20063;-70
2023/06/15 09:53:47;;;;;;;6.88;4.30;;;;;;;26.36;34.83;101849.09;5082297;28;20271;-70
2023/06/15 09:56:12;;;;;;;11.20;4.32;;;;;;;26.22;33.35;101848.41;5079409;28;20086;-70
2023/06/15 09:58:37;;;;;;;6.47;4.10;;;;;;;26.37;33.41;101864.16;5074111;28;21521;-70
2023/06/15 10:01:04;;;;;;;17.42;4.63;;;;;;;26.43;32.93;101862.03;5086600;28;20396;-70
2023/06/15 10:03:31;;;;;;;5.85;4.60;;;;;;;26.66;32.36;101855.81;5079194;28;20488;-70
2023/06/15 10:06:16;;;;;;;6.10;4.10;;;;;;;27.14;33.24;101844.16;5086833;28;20036;-70
2023/06/15 10:08:44;;;;;;;4.80;4.13;;;;;;;27.30;30.91;101847.34;5066951;28;20040;-70
2023/06/15 10:11:11;;;;;;;4.25;3.85;;;;;;;27.06;29.96;101836.72;5080239;28;20382;-71
2023/06/15 10:13:48;;;;;;;7.53;4.13;;;;;;;27.09;32.36;101845.34;5079214;28;20028;-71
2023/06/15 10:16:17;;;;;;;7.32;4.05;;;;;;;26.99;31.03;101847.03;5066380;28;20159;-70
2023/06/15 10:18:46;;;;;;;7.45;4.28;;;;;;;26.60;31.08;101850.94;5069917;28;20029;-71
2023/06/15 10:21:18;;;;;;;6.93;4.47;;;;;;;26.56;32.36;101844.13;5080926;28;20034;-71
2023/06/15 10:23:45;;;;;;;5.55;4.32;;;;;;;26.85;31.49;101850.78;5072873;28;20025;-71
2023/06/15 10:26:11;;;;;;;7.45;3.85;;;;;;;27.11;30.57;101847.06;5078469;28;20246;-70
2023/06/15 10:28:44;;;;;;;7.45;4.50;;;;;;;27.14;31.83;101842.38;5076863;28;20115;-71
2023/06/15 10:31:19;;;;;;;6.10;4.22;;;;;;;27.46;31.31;101839.81;5088828;28;20047;-71
2023/06/15 10:34:01;;;;;;;7.82;4.40;;;;;;;27.76;31.46;101841.91;5071250;28;20032;-71
2023/06/15 10:36:30;;;;;;;7.10;4.47;;;;;;;27.92;30.98;101846.03;5074765;28;20043;-71
2023/06/15 10:39:08;;;;;;;8.80;4.20;;;;;;;28.00;30.41;101838.22;5082412;28;20745;-71
2023/06/15 10:41:34;;;;;;;10.43;4.20;;;;;;;28.16;30.65;101835.13;5082292;28;20387;-71
2023/06/15 10:44:00;;;;;;;5.65;4.70;;;;;;;28.05;29.44;101836.00;5082542;28;20024;-71
2023/06/15 10:46:31;;;;;;;7.30;4.40;;;;;;;27.86;30.55;101835.78;5081963;28;20034;-71
2023/06/15 10:49:07;;;;;;;5.63;4.30;;;;;;;27.94;30.22;101838.72;5064057;28;20112;-71
2023/06/15 10:51:38;;;;;;;7.82;4.30;;;;;;;27.86;30.13;101841.16;5072818;28;20035;-76
2023/06/15 10:54:04;;;;;;;7.53;4.30;;;;;;;27.96;30.47;101837.63;5075205;27;20031;-76
2023/06/15 10:56:30;;;;;;;6.35;4.20;;;;;;;28.08;30.92;101834.91;5081554;28;20375;-77
2023/06/15 10:59:01;;;;;;;8.85;4.60;;;;;;;28.08;30.24;101837.59;5084040;28;20032;-76
2023/06/15 11:01:28;;;;;;;6.22;4.38;;;;;;;27.78;30.58;101845.31;5085485;28;20063;-76
2023/06/15 11:03:55;;;;;;;6.82;4.50;;;;;;;27.31;30.74;101830.34;5074986;28;20099;-71
2023/06/15 11:06:22;;;;;;;7.90;4.47;;;;;;;27.50;32.37;101837.75;5078476;28;20468;-70
2023/06/15 11:08:53;;;;;;;10.85;4.38;;;;;;;28.04;32.51;101833.47;5080698;28;20074;-70
2023/06/15 11:11:31;;;;;;;6.40;4.68;;;;;;;28.10;30.27;101833.81;5083564;28;20104;-71
2023/06/15 11:14:07;;;;;;;5.60;4.55;;;;;;;27.99;31.90;101834.69;5069577;28;20119;-71
2023/06/15 11:16:37;;;;;;;9.52;4.72;;;;;;;27.54;31.99;101832.03;5077637;28;20494;-71
2023/06/15 11:19:11;;;;;;;5.68;4.45;;;;;;;27.21;32.47;101846.28;5081502;28;20048;-71
2023/06/15 11:21:56;;;;;;;8.13;4.40;;;;;;;26.84;31.61;101843.72;5074205;28;20036;-71